Time;durP1;ratioP1;P1;durP2;ratioP2;P2;SDS_P1;SDS_P2;PMS_P1;PMS_P2;Temp;Humidity;BMP_temperature;BMP_pressure;BME280_temperature;BME280_humidity;BME280_pressure;Samples;Min_cycle;Max_cycle;Signal;HPM_P1;HPM_P2
2023/04/01 00:01:26;;;;;;;11.23;10.70;;;11.30;99.90;;;;;;4726682;30;20943;-43
2023/04/01 00:03:53;;;;;;;10.67;10.27;;;11.40;99.90;;;;;;4733682;30;20207;-45
2023/04/01 00:06:19;;;;;;;11.63;10.93;;;11.30;99.90;;;;;;4738286;30;20486;-43
2023/04/01 00:08:46;;;;;;;11.03;10.53;;;11.20;99.90;;;;;;4738689;30;20453;-47
2023/04/01 00:11:11;;;;;;;11.27;10.73;;;11.20;99.90;;;;;;4727717;30;20211;-44
2023/04/01 00:13:37;;;;;;;11.70;11.20;;;11.20;99.90;;;;;;4739325;30;20492;-42
2023/04/01 00:16:04;;;;;;;12.03;11.43;;;11.10;99.90;;;;;;4737100;30;20449;-46
2023/04/01 00:18:30;;;;;;;11.23;10.67;;;11.10;99.90;;;;;;4729112;30;20219;-43
2023/04/01 00:20:55;;;;;;;11.40;10.90;;;11.00;99.90;;;;;;4729932;30;21053;-45
2023/04/01 00:23:21;;;;;;;11.57;11.07;;;10.80;99.90;;;;;;4726878;30;20452;-44
2023/04/01 00:25:47;;;;;;;12.83;11.90;;;10.70;99.90;;;;;;4731068;30;20200;-43
2023/04/01 00:28:14;;;;;;;11.67;10.90;;;10.70;99.90;;;;;;4737605;30;20204;-47
2023/04/01 00:30:40;;;;;;;10.83;10.23;;;10.80;99.90;;;;;;4735781;30;20969;-44
2023/04/01 00:33:06;;;;;;;12.17;11.37;;;10.80;99.90;;;;;;4730533;30;20470;-44
2023/04/01 00:35:32;;;;;;;11.50;10.80;;;10.80;99.90;;;;;;4735647;30;20232;-44
2023/04/01 00:37:58;;;;;;;11.50;11.00;;;10.80;99.90;;;;;;4737690;30;20446;-44
2023/04/01 00:40:31;;;;;;;11.10;10.60;;;10.80;99.90;;;;;;4726554;30;20596;-47
2023/04/01 00:42:57;;;;;;;11.80;11.10;;;10.80;99.90;;;;;;4730417;30;20445;-44
2023/04/01 00:45:25;;;;;;;11.27;10.77;;;10.90;99.90;;;;;;4735810;30;20456;-47
2023/04/01 00:47:51;;;;;;;11.20;10.60;;;10.90;99.90;;;;;;4731766;30;20484;-45
2023/04/01 00:50:16;;;;;;;11.13;10.53;;;10.80;99.90;;;;;;4729973;30;20494;-41
2023/04/01 00:52:42;;;;;;;11.50;10.90;;;10.90;99.90;;;;;;4734397;30;20221;-43
2023/04/01 00:55:10;;;;;;;11.40;10.80;;;10.90;99.90;;;;;;4731211;30;20200;-43
2023/04/01 00:57:37;;;;;;;10.30;9.90;;;10.90;99.90;;;;;;4734739;30;20485;-45
2023/04/01 01:00:07;;;;;;;11.10;10.50;;;11.00;99.90;;;;;;4735159;30;20432;-42
2023/04/01 01:02:34;;;;;;;11.73;11.00;;;10.90;99.90;;;;;;4725196;30;20464;-46
2023/04/01 01:05:00;;;;;;;10.80;10.30;;;11.00;99.90;;;;;;4735996;30;20451;-43
2023/04/01 01:07:34;;;;;;;10.80;10.10;;;10.90;99.90;;;;;;4731338;30;20545;-42
2023/04/01 01:10:12;;;;;;;10.60;10.10;;;10.90;99.90;;;;;;4732394;30;20250;-45
2023/04/01 01:12:45;;;;;;;11.87;11.10;;;10.80;99.90;;;;;;4729804;30;20608;-43
2023/04/01 01:15:32;;;;;;;11.00;10.50;;;10.80;99.90;;;;;;4735948;30;20533;-43
2023/04/01 01:18:16;;;;;;;10.63;10.23;;;10.80;99.90;;;;;;4732170;30;20445;-43
2023/04/01 01:21:30;;;;;;;10.93;10.43;;;10.80;99.90;;;;;;4729807;30;21057;-43
2023/04/01 01:23:58;;;;;;;11.07;10.57;;;10.80;99.90;;;;;;4706940;30;21031;-44
2023/04/01 01:26:48;;;;;;;10.87;10.37;;;10.80;99.90;;;;;;4728249;30;20438;-43
2023/04/01 01:29:25;;;;;;;11.00;10.50;;;10.80;99.90;;;;;;4733562;30;20469;-45
2023/04/01 01:32:06;;;;;;;9.67;9.17;;;10.90;99.90;;;;;;4734376;30;21055;-44
2023/04/01 01:34:52;;;;;;;10.20;9.70;;;10.90;99.90;;;;;;4738965;30;20545;-41
2023/04/01 01:37:21;;;;;;;10.90;10.50;;;10.90;99.90;;;;;;4733700;30;20443;-41
2023/04/01 01:39:54;;;;;;;10.70;10.30;;;10.90;99.90;;;;;;4729911;30;20510;-45
2023/04/01 01:42:22;;;;;;;10.33;9.83;;;11.00;99.90;;;;;;4733621;30;20442;-42
2023/04/01 01:44:49;;;;;;;10.33;9.93;;;11.00;99.90;;;;;;4733528;30;20491;-43
2023/04/01 01:47:16;;;;;;;10.70;10.20;;;11.10;99.90;;;;;;4740529;30;20487;-43
2023/04/01 01:49:44;;;;;;;10.60;10.10;;;11.00;99.90;;;;;;4735126;30;20559;-41
2023/04/01 01:52:11;;;;;;;10.80;10.30;;;11.10;99.90;;;;;;4732385;30;20454;-42
2023/04/01 01:54:46;;;;;;;11.03;10.50;;;10.90;99.90;;;;;;4737593;30;20514;-46
2023/04/01 01:57:12;;;;;;;10.60;10.20;;;10.90;99.90;;;;;;4735976;30;21065;-43
2023/04/01 01:59:39;;;;;;;9.33;8.93;;;10.90;99.90;;;;;;4732040;30;20440;-45
2023/04/01 02:02:08;;;;;;;11.17;10.57;;;10.90;99.90;;;;;;4730977;30;20196;-45
2023/04/01 02:04:40;;;;;;;11.00;10.50;;;11.00;99.90;;;;;;4734918;30;20682;-43
2023/04/01 02:07:15;;;;;;;11.07;10.47;;;11.00;99.90;;;;;;4731148;30;20437;-46
2023/04/01 02:09:43;;;;;;;11.10;10.40;;;11.00;99.90;;;;;;4741205;30;20505;-46
2023/04/01 02:12:12;;;;;;;10.80;10.30;;;11.00;99.90;;;;;;4731547;30;20793;-43
2023/04/01 02:14:57;;;;;;;10.80;10.30;;;11.00;99.90;;;;;;4731478;30;20559;-41
2023/04/01 02:17:29;;;;;;;10.90;10.30;;;11.00;99.90;;;;;;4725538;30;20515;-46
2023/04/01 02:20:15;;;;;;;10.90;10.50;;;11.10;99.90;;;;;;4725331;30;20511;-43
2023/04/01 02:22:46;;;;;;;11.13;10.33;;;11.10;99.90;;;;;;4722053;30;20485;-45
2023/04/01 02:25:15;;;;;;;11.67;11.07;;;11.00;99.90;;;;;;4727136;30;20458;-43
2023/04/01 02:27:44;;;;;;;11.23;10.70;;;11.00;99.90;;;;;;4726713;30;20874;-45
2023/04/01 02:30:11;;;;;;;10.83;10.33;;;10.90;99.90;;;;;;4735122;30;21014;-46
2023/04/01 02:32:39;;;;;;;11.07;10.50;;;11.00;99.90;;;;;;4730376;30;20535;-43
2023/04/01 02:35:08;;;;;;;10.57;9.97;;;11.00;99.90;;;;;;4731931;30;21113;-42
2023/04/01 02:37:33;;;;;;;11.23;10.53;;;11.00;99.90;;;;;;4729141;30;20450;-47
2023/04/01 02:40:02;;;;;;;10.60;10.20;;;11.10;99.90;;;;;;4733487;30;20519;-43
2023/04/01 02:42:27;;;;;;;10.63;10.13;;;11.00;99.90;;;;;;4726177;30;20290;-47
2023/04/01 02:44:53;;;;;;;10.97;10.37;;;11.10;99.90;;;;;;4727664;30;20921;-42
2023/04/01 02:47:19;;;;;;;10.97;10.47;;;11.10;99.90;;;;;;4728736;30;20262;-42
2023/04/01 02:49:44;;;;;;;11.17;10.67;;;11.10;99.90;;;;;;4731076;30;20215;-44
2023/04/01 02:52:10;;;;;;;11.40;10.80;;;11.10;99.90;;;;;;4728285;30;20569;-45
2023/04/01 02:54:35;;;;;;;11.17;10.67;;;11.10;99.90;;;;;;4733359;30;20224;-47
2023/04/01 02:57:01;;;;;;;11.30;10.80;;;11.20;99.90;;;;;;4735193;30;20192;-44
2023/04/01 02:59:29;;;;;;;10.83;10.13;;;11.10;99.90;;;;;;4723316;30;20556;-46
2023/04/01 03:01:55;;;;;;;11.10;10.60;;;11.10;99.90;;;;;;4730243;30;20201;-44
2023/04/01 03:04:20;;;;;;;11.30;10.60;;;11.10;99.90;;;;;;4739434;30;20950;-45
2023/04/01 03:06:46;;;;;;;10.90;10.30;;;11.10;99.90;;;;;;4732906;30;20211;-44
2023/04/01 03:09:11;;;;;;;11.27;10.67;;;11.10;99.90;;;;;;4741326;30;20611;-42
2023/04/01 03:11:37;;;;;;;11.50;10.90;;;11.10;99.90;;;;;;4730765;30;20219;-45
2023/04/01 03:14:03;;;;;;;11.50;10.90;;;11.20;99.90;;;;;;4733982;30;20227;-42
2023/04/01 03:16:28;;;;;;;11.33;10.60;;;11.10;99.90;;;;;;4736085;30;20211;-43
2023/04/01 03:18:56;;;;;;;11.50;10.90;;;11.10;99.90;;;;;;4739276;30;20192;-43
2023/04/01 03:21:23;;;;;;;10.50;10.00;;;11.10;99.90;;;;;;4732761;30;20714;-40
2023/04/01 03:23:49;;;;;;;11.03;10.43;;;11.10;99.90;;;;;;4729686;30;20541;-43
2023/04/01 03:26:16;;;;;;;10.60;10.10;;;11.20;99.90;;;;;;4736098;30;21073;-41
2023/04/01 03:28:42;;;;;;;10.57;10.07;;;11.10;99.90;;;;;;4740300;30;20457;-44
2023/04/01 03:31:08;;;;;;;10.83;10.33;;;11.10;99.90;;;;;;4727716;30;20447;-42
2023/04/01 03:33:34;;;;;;;11.50;10.80;;;11.20;99.90;;;;;;4731701;30;20561;-42
2023/04/01 03:36:00;;;;;;;10.50;10.00;;;11.20;99.90;;;;;;4734828;30;20958;-44
2023/04/01 03:38:25;;;;;;;10.80;10.20;;;11.10;99.90;;;;;;4730048;30;20207;-41
2023/04/01 03:40:51;;;;;;;10.67;10.10;;;11.10;99.90;;;;;;4731783;30;20238;-43
2023/04/01 03:43:17;;;;;;;11.23;10.63;;;11.10;99.90;;;;;;4736947;30;20291;-47
2023/04/01 03:45:47;;;;;;;11.13;10.50;;;11.10;99.90;;;;;;4734941;30;20284;-44
2023/04/01 03:48:14;;;;;;;10.97;10.47;;;11.20;99.90;;;;;;4731505;30;20203;-42
2023/04/01 03:50:40;;;;;;;10.73;10.03;;;11.10;99.90;;;;;;4731927;30;21033;-41
2023/04/01 03:53:05;;;;;;;10.77;10.27;;;11.10;99.90;;;;;;4729946;30;20455;-44
2023/04/01 03:55:31;;;;;;;10.20;9.80;;;11.10;99.90;;;;;;4727849;30;20269;-45
2023/04/01 03:57:57;;;;;;;10.43;10.03;;;11.10;99.90;;;;;;4740406;30;20942;-44
2023/04/01 04:00:22;;;;;;;10.97;10.47;;;11.10;99.90;;;;;;4730821;30;20691;-42
2023/04/01 04:02:48;;;;;;;11.20;10.60;;;11.10;99.90;;;;;;4733250;30;20195;-42
2023/04/01 04:05:14;;;;;;;10.87;10.27;;;11.10;99.90;;;;;;4739024;30;20254;-44
2023/04/01 04:07:40;;;;;;;10.70;10.30;;;11.10;99.90;;;;;;4729236;30;20212;-48
2023/04/01 04:10:06;;;;;;;10.43;9.90;;;11.10;99.90;;;;;;4723197;30;20957;-44
2023/04/01 04:12:32;;;;;;;10.80;10.10;;;11.10;99.90;;;;;;4730682;30;20207;-44
2023/04/01 04:14:58;;;;;;;10.20;9.80;;;11.10;99.90;;;;;;4730822;30;20489;-46
2023/04/01 04:17:23;;;;;;;10.57;10.07;;;11.10;99.90;;;;;;4740154;30;20436;-41
2023/04/01 04:19:49;;;;;;;11.57;10.87;;;11.10;99.90;;;;;;4740523;30;20186;-44
2023/04/01 04:22:15;;;;;;;10.33;9.73;;;11.10;99.90;;;;;;4725759;30;20197;-43
2023/04/01 04:24:40;;;;;;;10.87;10.37;;;11.10;99.90;;;;;;4723886;30;20211;-42
2023/04/01 04:27:06;;;;;;;10.97;10.47;;;11.10;99.90;;;;;;4729912;30;20191;-43
2023/04/01 04:29:32;;;;;;;9.67;9.17;;;11.10;99.90;;;;;;4732797;30;20208;-46
2023/04/01 04:31:57;;;;;;;11.03;10.43;;;11.10;99.90;;;;;;4723367;30;20462;-44
2023/04/01 04:34:23;;;;;;;11.17;10.60;;;11.10;99.90;;;;;;4735818;30;20224;-45
2023/04/01 04:36:49;;;;;;;10.20;9.80;;;11.10;99.90;;;;;;4724719;30;20250;-42
2023/04/01 04:39:15;;;;;;;11.00;10.50;;;11.10;99.90;;;;;;4725324;30;20198;-43
2023/04/01 04:41:41;;;;;;;11.70;11.00;;;11.10;99.90;;;;;;4731779;30;20538;-45
2023/04/01 04:44:07;;;;;;;11.53;10.93;;;11.10;99.90;;;;;;4730740;30;20455;-42
2023/04/01 04:46:32;;;;;;;11.60;11.00;;;11.10;99.90;;;;;;4734066;30;20493;-44
2023/04/01 04:48:58;;;;;;;11.50;10.90;;;11.10;99.90;;;;;;4723678;30;20456;-45
2023/04/01 04:51:24;;;;;;;11.33;10.63;;;11.20;99.90;;;;;;4727188;30;20187;-46
2023/04/01 04:53:50;;;;;;;10.97;10.47;;;11.20;99.90;;;;;;4729049;30;20224;-44
2023/04/01 04:56:25;;;;;;;11.07;10.57;;;11.20;99.90;;;;;;4724618;30;20258;-44
2023/04/01 04:58:50;;;;;;;11.60;11.00;;;11.20;99.90;;;;;;4736822;30;20430;-43
2023/04/01 05:01:17;;;;;;;11.43;10.83;;;11.10;99.90;;;;;;4721544;30;20856;-46
2023/04/01 05:03:43;;;;;;;11.40;10.73;;;11.20;99.90;;;;;;4738216;30;20199;-46
2023/04/01 05:06:11;;;;;;;10.30;9.90;;;11.10;99.90;;;;;;4734806;30;20450;-44
2023/04/01 05:08:39;;;;;;;10.67;10.17;;;11.10;99.90;;;;;;4731720;30;20450;-47
2023/04/01 05:11:09;;;;;;;11.17;10.67;;;11.10;99.90;;;;;;4734191;30;20945;-42
2023/04/01 05:13:35;;;;;;;11.17;10.50;;;11.10;99.90;;;;;;4739999;30;20535;-45
2023/04/01 05:16:01;;;;;;;10.93;10.47;;;11.10;99.90;;;;;;4734248;30;20450;-45
2023/04/01 05:18:27;;;;;;;11.33;10.70;;;11.20;99.90;;;;;;4738976;30;20961;-46
2023/04/01 05:20:54;;;;;;;10.90;10.40;;;11.20;99.90;;;;;;4734221;30;20212;-43
2023/04/01 05:23:21;;;;;;;10.90;10.40;;;11.30;99.90;;;;;;4734591;30;20208;-43
2023/04/01 05:25:48;;;;;;;10.47;9.87;;;11.30;99.90;;;;;;4732764;30;20476;-43
2023/04/01 05:28:13;;;;;;;10.67;10.03;;;11.20;99.90;;;;;;4728698;30;20475;-42
2023/04/01 05:30:43;;;;;;;10.97;10.37;;;11.20;99.90;;;;;;4734655;30;20557;-43
2023/04/01 05:33:10;;;;;;;10.67;10.27;;;11.20;99.90;;;;;;4731962;30;20200;-44
2023/04/01 05:35:36;;;;;;;10.47;9.80;;;11.20;99.90;;;;;;4736127;30;20561;-44
2023/04/01 05:38:03;;;;;;;10.83;10.23;;;11.20;99.90;;;;;;4732807;30;20454;-43
2023/04/01 05:40:29;;;;;;;11.07;10.47;;;11.20;99.90;;;;;;4727507;30;20200;-45
2023/04/01 05:42:54;;;;;;;10.90;10.40;;;11.20;99.90;;;;;;4738088;30;20468;-45
2023/04/01 05:45:20;;;;;;;11.03;10.53;;;11.20;99.90;;;;;;4728772;30;20457;-44
2023/04/01 05:47:46;;;;;;;10.73;10.13;;;11.30;99.90;;;;;;4734978;30;20232;-45
2023/04/01 05:50:12;;;;;;;10.67;10.10;;;11.30;99.90;;;;;;4738874;30;20450;-43
2023/04/01 05:52:38;;;;;;;10.50;10.00;;;11.20;99.90;;;;;;4729583;30;20293;-45
2023/04/01 05:55:05;;;;;;;10.47;9.90;;;11.30;99.90;;;;;;4736821;30;20572;-45
2023/04/01 05:57:31;;;;;;;11.10;10.50;;;11.30;99.90;;;;;;4731970;30;20447;-44
2023/04/01 05:59:56;;;;;;;10.50;9.90;;;11.30;99.90;;;;;;4727181;30;20445;-43
2023/04/01 06:02:23;;;;;;;10.80;10.20;;;11.30;99.90;;;;;;4736371;30;20450;-44
2023/04/01 06:04:49;;;;;;;10.80;10.30;;;11.50;99.90;;;;;;4730354;30;20196;-43
2023/04/01 06:07:17;;;;;;;10.03;9.37;;;11.40;99.90;;;;;;4734238;30;20453;-43
2023/04/01 06:09:44;;;;;;;10.50;10.00;;;11.30;99.90;;;;;;4730565;30;20463;-41
2023/04/01 06:12:37;;;;;;;10.60;10.10;;;11.30;99.90;;;;;;4736973;30;20520;-44
2023/04/01 06:15:11;;;;;;;11.13;10.53;;;11.30;99.90;;;;;;4730601;30;20482;-44
2023/04/01 06:18:31;;;;;;;10.90;10.33;;;11.30;99.90;;;;;;4730054;30;20804;-43
2023/04/01 06:21:15;;;;;;;11.03;10.50;;;11.30;99.90;;;;;;4699769;30;20455;-44
2023/04/01 06:23:49;;;;;;;12.20;11.60;;;11.30;99.90;;;;;;4713651;30;20453;-42
2023/04/01 06:26:33;;;;;;;13.53;12.87;;;11.20;99.90;;;;;;4710994;30;20466;-47
2023/04/01 06:29:27;;;;;;;13.30;12.60;;;11.10;99.90;;;;;;4707491;30;20646;-41
2023/04/01 06:32:24;;;;;;;12.30;11.60;;;10.90;99.90;;;;;;4707429;30;20517;-45
2023/04/01 06:35:21;;;;;;;13.10;12.40;;;10.90;99.90;;;;;;4707871;30;20910;-44
2023/04/01 06:38:05;;;;;;;13.00;12.40;;;10.80;99.90;;;;;;4714682;30;20452;-44
2023/04/01 06:40:56;;;;;;;12.97;12.27;;;10.80;99.90;;;;;;4741733;30;20489;-45
2023/04/01 06:43:58;;;;;;;11.83;11.33;;;11.00;99.90;;;;;;4740686;30;20510;-43
2023/04/01 06:46:46;;;;;;;11.77;11.27;;;11.10;99.90;;;;;;4743176;30;20520;-41
2023/04/01 06:49:40;;;;;;;11.40;10.90;;;11.10;99.90;;;;;;4737333;30;21285;-40
2023/04/01 06:52:26;;;;;;;11.27;10.67;;;11.20;99.90;;;;;;4739362;30;20511;-43
2023/04/01 06:55:01;;;;;;;10.80;10.20;;;11.20;99.90;;;;;;4737764;30;20531;-42
2023/04/01 06:57:40;;;;;;;11.93;11.23;;;11.30;99.90;;;;;;4734428;30;20990;-44
2023/04/01 07:00:29;;;;;;;10.47;9.97;;;11.40;99.90;;;;;;4742175;30;20460;-42
2023/04/01 07:03:06;;;;;;;10.37;9.87;;;11.50;99.90;;;;;;4734778;30;20455;-42
2023/04/01 07:05:33;;;;;;;10.80;10.30;;;11.70;99.90;;;;;;4733430;30;20816;-43
2023/04/01 07:08:03;;;;;;;10.23;9.63;;;11.70;99.90;;;;;;4738815;30;20453;-43
2023/04/01 07:10:54;;;;;;;10.60;10.10;;;11.80;99.90;;;;;;4740420;30;20480;-43
2023/04/01 07:13:33;;;;;;;10.37;9.90;;;11.80;99.90;;;;;;4731120;30;20463;-44
2023/04/01 07:16:37;;;;;;;10.77;10.27;;;11.90;99.90;;;;;;4728675;30;21012;-45
2023/04/01 07:19:14;;;;;;;10.17;9.67;;;12.10;99.90;;;;;;4730453;30;20528;-42
2023/04/01 07:21:50;;;;;;;10.07;9.47;;;12.20;99.90;;;;;;4740647;30;20439;-42
2023/04/01 07:24:29;;;;;;;9.33;8.83;;;12.20;99.90;;;;;;4744283;30;20541;-43
2023/04/01 07:26:56;;;;;;;9.93;9.47;;;12.30;99.90;;;;;;4735653;30;20446;-43
2023/04/01 07:29:23;;;;;;;9.93;9.43;;;12.30;99.90;;;;;;4724404;30;20462;-43
2023/04/01 07:32:12;;;;;;;10.97;10.13;;;12.30;99.90;;;;;;4729924;30;20562;-46
2023/04/01 07:35:15;;;;;;;10.43;9.90;;;12.30;99.90;;;;;;4727921;30;20493;-46
2023/04/01 07:37:59;;;;;;;10.40;9.80;;;12.30;99.90;;;;;;4720670;30;20970;-43
2023/04/01 07:40:34;;;;;;;10.00;9.50;;;12.30;99.90;;;;;;4738081;30;20422;-43
2023/04/01 07:43:21;;;;;;;9.53;9.10;;;12.30;99.90;;;;;;4745805;30;20583;-45
2023/04/01 07:46:17;;;;;;;9.63;9.23;;;12.30;99.90;;;;;;4727517;30;20839;-44
2023/04/01 07:48:42;;;;;;;9.83;9.40;;;12.40;99.90;;;;;;4724031;30;20448;-43
2023/04/01 07:51:31;;;;;;;9.90;9.50;;;12.40;99.90;;;;;;4734115;30;21242;-42
2023/04/01 07:54:15;;;;;;;9.60;9.10;;;12.40;99.90;;;;;;4741047;30;20283;-42
2023/04/01 07:57:01;;;;;;;10.47;9.87;;;12.40;99.90;;;;;;4732273;30;20904;-42
2023/04/01 07:59:44;;;;;;;9.87;9.40;;;12.30;99.90;;;;;;4746435;30;20488;-45
2023/04/01 08:02:27;;;;;;;9.43;8.93;;;12.40;99.90;;;;;;4720260;30;20850;-43
2023/04/01 08:05:30;;;;;;;10.00;9.50;;;12.50;99.90;;;;;;4746601;30;20442;-43
2023/04/01 08:08:01;;;;;;;10.33;9.93;;;12.60;99.90;;;;;;4748233;30;20467;-42
2023/04/01 08:10:30;;;;;;;9.80;9.40;;;12.60;99.90;;;;;;4748097;30;20442;-46
2023/04/01 08:13:23;;;;;;;10.10;9.70;;;12.50;99.90;;;;;;4748299;30;20453;-43
2023/04/01 08:16:14;;;;;;;10.43;9.93;;;12.50;99.90;;;;;;4734366;30;20436;-46
2023/04/01 08:18:53;;;;;;;9.20;8.80;;;12.60;99.90;;;;;;4727534;30;20438;-52
2023/04/01 08:21:30;;;;;;;9.57;8.97;;;12.80;99.90;;;;;;4739486;30;21033;-47
2023/04/01 08:24:18;;;;;;;9.93;9.53;;;12.90;99.90;;;;;;4742012;30;20533;-48
2023/04/01 08:26:50;;;;;;;9.77;9.37;;;13.10;99.90;;;;;;4738850;30;20461;-51
2023/04/01 08:29:20;;;;;;;10.03;9.43;;;13.40;99.90;;;;;;4733237;30;20462;-49
2023/04/01 08:32:03;;;;;;;10.10;9.60;;;13.40;99.90;;;;;;4733389;30;20447;-48
2023/04/01 08:34:35;;;;;;;10.50;10.10;;;13.50;99.90;;;;;;4724484;30;20478;-48
2023/04/01 08:37:07;;;;;;;9.43;9.07;;;13.60;99.90;;;;;;4727252;30;20446;-50
2023/04/01 08:39:41;;;;;;;9.67;9.17;;;13.60;99.90;;;;;;4726422;30;20447;-49
2023/04/01 08:42:44;;;;;;;9.27;8.60;;;13.60;99.80;;;;;;4730347;30;20535;-50
2023/04/01 08:45:15;;;;;;;9.73;9.33;;;13.40;99.70;;;;;;4741190;30;20820;-50
2023/04/01 08:47:52;;;;;;;9.27;8.97;;;13.30;99.90;;;;;;4734552;30;20482;-49
2023/04/01 08:50:47;;;;;;;9.33;8.90;;;13.20;99.60;;;;;;4741570;30;20966;-49
2023/04/01 08:53:38;;;;;;;9.50;9.10;;;13.30;99.90;;;;;;4716107;30;20469;-46
2023/04/01 08:56:18;;;;;;;9.57;9.17;;;13.20;99.90;;;;;;4728140;30;20905;-44
2023/04/01 08:59:01;;;;;;;9.87;9.40;;;13.20;99.90;;;;;;4723227;30;20451;-48
2023/04/01 09:01:45;;;;;;;8.77;8.27;;;13.10;99.90;;;;;;4736759;30;20978;-45
2023/04/01 09:04:25;;;;;;;8.90;8.50;;;13.10;99.50;;;;;;4727498;30;20447;-48
2023/04/01 09:06:56;;;;;;;9.50;9.10;;;13.10;99.90;;;;;;4729807;30;20450;-53
2023/04/01 09:09:34;;;;;;;9.10;8.70;;;13.10;99.90;;;;;;4735716;30;20450;-50
2023/04/01 09:12:29;;;;;;;9.30;8.80;;;13.30;99.90;;;;;;4741757;30;20447;-49
2023/04/01 09:15:31;;;;;;;10.30;9.80;;;13.30;99.60;;;;;;4729073;30;20499;-47
2023/04/01 09:17:59;;;;;;;8.87;8.50;;;13.40;99.40;;;;;;4732503;30;20560;-51
2023/04/01 09:20:46;;;;;;;8.80;8.40;;;13.20;99.20;;;;;;4738136;30;20450;-49
2023/04/01 09:23:24;;;;;;;9.33;8.93;;;13.20;99.80;;;;;;4736662;30;20493;-52
2023/04/01 09:26:07;;;;;;;9.70;9.30;;;13.20;99.90;;;;;;4733299;30;20458;-47
2023/04/01 09:29:05;;;;;;;9.40;9.00;;;13.20;99.90;;;;;;4722390;30;20457;-46
2023/04/01 09:31:58;;;;;;;8.97;8.57;;;13.40;99.60;;;;;;4727696;30;20545;-47
2023/04/01 09:34:41;;;;;;;9.17;8.80;;;13.30;99.60;;;;;;4730571;30;20479;-47
2023/04/01 09:37:16;;;;;;;9.43;9.03;;;13.50;99.40;;;;;;4727437;30;20453;-50
2023/04/01 09:39:45;;;;;;;9.77;9.27;;;13.50;98.50;;;;;;4735522;30;20447;-48
2023/04/01 09:42:46;;;;;;;9.27;8.77;;;13.70;99.10;;;;;;4731676;30;20451;-50
2023/04/01 09:45:37;;;;;;;9.60;9.20;;;13.70;98.90;;;;;;4707861;30;20481;-49
2023/04/01 09:48:20;;;;;;;9.03;8.63;;;13.70;99.10;;;;;;4736092;30;20521;-50
2023/04/01 09:51:03;;;;;;;9.50;9.00;;;13.70;97.80;;;;;;4733659;30;20443;-47
2023/04/01 09:53:39;;;;;;;10.40;9.80;;;13.80;98.30;;;;;;4729110;30;21016;-49
2023/04/01 09:56:23;;;;;;;11.63;10.87;;;13.70;98.00;;;;;;4729560;30;20482;-53
2023/04/01 09:59:19;;;;;;;9.93;9.43;;;14.00;98.60;;;;;;4737193;30;20461;-50
2023/04/01 10:01:57;;;;;;;8.63;8.33;;;14.00;96.60;;;;;;4732526;30;21159;-51
2023/04/01 10:04:31;;;;;;;9.17;8.77;;;14.10;96.40;;;;;;4729178;30;20556;-51
2023/04/01 10:07:03;;;;;;;9.90;9.40;;;14.10;97.20;;;;;;4736739;30;20443;-48
2023/04/01 10:09:43;;;;;;;9.43;9.13;;;13.80;96.80;;;;;;4719235;30;20534;-52
2023/04/01 10:12:30;;;;;;;8.43;8.13;;;13.70;96.40;;;;;;4740046;30;20964;-51
2023/04/01 10:15:24;;;;;;;8.63;8.33;;;13.40;96.90;;;;;;4727080;30;20477;-51
2023/04/01 10:18:03;;;;;;;9.10;8.70;;;13.50;97.50;;;;;;4726218;30;20543;-52
2023/04/01 10:20:40;;;;;;;9.53;9.03;;;13.60;97.70;;;;;;4739120;30;20562;-47
2023/04/01 10:23:27;;;;;;;9.43;9.03;;;13.50;98.00;;;;;;4730782;30;20454;-48
2023/04/01 10:26:16;;;;;;;9.03;8.63;;;13.70;97.80;;;;;;4731535;30;20489;-48
2023/04/01 10:29:14;;;;;;;10.40;9.90;;;13.70;97.60;;;;;;4729851;30;20454;-47
2023/04/01 10:31:50;;;;;;;8.53;8.13;;;13.70;98.10;;;;;;4730039;30;20962;-49
2023/04/01 10:34:53;;;;;;;9.40;9.00;;;13.60;97.60;;;;;;4736679;30;20463;-46
2023/04/01 10:37:42;;;;;;;9.30;8.90;;;13.70;98.40;;;;;;4732444;30;21006;-46
2023/04/01 10:40:42;;;;;;;9.20;8.80;;;13.70;98.30;;;;;;4719468;30;20447;-49
2023/04/01 10:43:32;;;;;;;9.60;9.20;;;13.50;98.70;;;;;;4732164;30;20485;-48
2023/04/01 10:46:26;;;;;;;9.40;9.00;;;13.40;98.20;;;;;;4724933;30;20558;-50
2023/04/01 10:49:42;;;;;;;8.70;8.40;;;13.40;99.10;;;;;;4719619;30;20988;-45
2023/04/01 10:52:10;;;;;;;9.03;8.63;;;13.40;98.90;;;;;;4722721;30;20455;-54
2023/04/01 10:54:36;;;;;;;9.70;9.30;;;13.50;99.30;;;;;;4716054;30;20479;-49
2023/04/01 10:57:20;;;;;;;8.97;8.57;;;13.70;98.90;;;;;;4725510;30;20462;-46
2023/04/01 11:00:18;;;;;;;10.33;9.83;;;13.80;98.70;;;;;;4721614;30;20259;-51
2023/04/01 11:02:46;;;;;;;7.97;7.67;;;14.10;97.90;;;;;;4718431;30;20443;-50
2023/04/01 11:05:18;;;;;;;10.07;9.47;;;14.40;97.00;;;;;;4725710;30;20458;-51
2023/04/01 11:08:14;;;;;;;9.23;8.83;;;14.90;96.60;;;;;;4728127;30;20485;-52
2023/04/01 11:10:57;;;;;;;9.03;8.63;;;15.30;96.00;;;;;;4722230;30;20525;-50
2023/04/01 11:13:49;;;;;;;9.73;9.33;;;15.50;94.90;;;;;;4727050;30;20531;-52
2023/04/01 11:16:24;;;;;;;9.97;9.57;;;15.90;93.70;;;;;;4732736;30;20423;-48
2023/04/01 11:19:14;;;;;;;9.60;9.20;;;16.40;92.20;;;;;;4724483;30;20455;-48
2023/04/01 11:21:49;;;;;;;9.43;9.03;;;16.50;91.10;;;;;;4719992;30;20439;-54
2023/04/01 11:24:37;;;;;;;9.50;9.00;;;17.10;91.10;;;;;;4725101;30;20483;-49
2023/04/01 11:27:16;;;;;;;9.87;9.47;;;17.80;90.10;;;;;;4724358;30;20558;-53
2023/04/01 11:30:09;;;;;;;9.20;8.90;;;18.10;84.30;;;;;;4728335;30;20447;-49
2023/04/01 11:33:05;;;;;;;9.50;9.10;;;18.20;83.80;;;;;;4717653;30;20446;-46
2023/04/01 11:35:51;;;;;;;9.47;9.17;;;19.00;84.00;;;;;;4725205;30;20451;-50
2023/04/01 11:38:26;;;;;;;9.77;9.37;;;19.30;77.50;;;;;;4725445;30;20596;-48
2023/04/01 11:41:15;;;;;;;9.30;8.80;;;18.50;77.70;;;;;;4734151;30;20473;-49
2023/04/01 11:44:03;;;;;;;8.70;8.30;;;17.90;85.20;;;;;;4737908;30;20520;-46
2023/04/01 11:46:46;;;;;;;9.57;9.13;;;17.30;86.20;;;;;;4734304;30;20527;-50
2023/04/01 11:49:42;;;;;;;8.67;8.27;;;17.20;90.90;;;;;;4730289;30;20458;-53
2023/04/01 11:52:30;;;;;;;9.90;9.50;;;17.20;89.20;;;;;;4727970;30;20458;-52
2023/04/01 11:55:10;;;;;;;8.60;8.30;;;17.00;85.60;;;;;;4738334;30;20477;-54
2023/04/01 11:57:50;;;;;;;9.70;9.30;;;16.90;88.60;;;;;;4720687;30;20446;-51
2023/04/01 12:00:53;;;;;;;9.30;8.90;;;16.80;87.30;;;;;;4739380;30;20776;-46
2023/04/01 12:03:43;;;;;;;9.87;9.47;;;17.20;85.30;;;;;;4739524;30;20488;-47
2023/04/01 12:06:20;;;;;;;9.10;8.70;;;17.70;82.40;;;;;;4734343;30;20452;-52
2023/04/01 12:09:23;;;;;;;9.20;8.90;;;17.80;84.60;;;;;;4734012;30;20457;-51
2023/04/01 12:12:20;;;;;;;8.37;8.00;;;18.30;85.40;;;;;;4738332;30;20463;-44
2023/04/01 12:14:49;;;;;;;9.50;9.10;;;18.40;87.00;;;;;;4736388;30;20612;-52
2023/04/01 12:17:42;;;;;;;8.07;7.77;;;18.70;87.30;;;;;;4727512;30;20461;-47
2023/04/01 12:20:29;;;;;;;8.40;8.07;;;18.90;81.30;;;;;;4737700;30;20442;-50
2023/04/01 12:23:17;;;;;;;9.17;8.67;;;19.20;82.60;;;;;;4736252;30;20538;-50
2023/04/01 12:26:20;;;;;;;9.60;9.20;;;20.10;79.60;;;;;;4737474;30;20431;-49
2023/04/01 12:28:55;;;;;;;8.87;8.57;;;20.20;67.40;;;;;;4722207;30;20441;-52
2023/04/01 12:31:28;;;;;;;9.13;8.73;;;20.80;65.10;;;;;;4734912;30;20475;-53
2023/04/01 12:34:20;;;;;;;8.23;7.93;;;20.70;64.10;;;;;;4730155;30;21543;-54
2023/04/01 12:36:49;;;;;;;9.83;9.33;;;20.20;62.50;;;;;;4719342;30;21047;-48
2023/04/01 12:39:20;;;;;;;9.90;9.50;;;19.20;64.30;;;;;;4735662;30;20439;-47
2023/04/01 12:42:23;;;;;;;9.30;8.90;;;18.60;67.90;;;;;;4725853;30;20886;-48
2023/04/01 12:45:07;;;;;;;8.90;8.50;;;17.80;75.80;;;;;;4721224;30;21016;-49
2023/04/01 12:47:54;;;;;;;9.40;8.87;;;17.20;86.90;;;;;;4726279;30;20526;-48
2023/04/01 12:50:33;;;;;;;10.20;9.80;;;16.70;92.20;;;;;;4726164;30;20835;-54
2023/04/01 12:53:34;;;;;;;10.67;10.00;;;16.10;95.90;;;;;;4726107;30;20438;-47
2023/04/01 12:56:03;;;;;;;10.30;9.80;;;15.60;99.10;;;;;;4728181;30;20464;-50
2023/04/01 12:58:41;;;;;;;8.57;8.17;;;15.00;99.60;;;;;;4718010;30;20477;-49
2023/04/01 13:01:25;;;;;;;10.30;9.90;;;14.80;99.90;;;;;;4725665;30;20521;-52
2023/04/01 13:04:20;;;;;;;9.93;9.53;;;14.60;99.90;;;;;;4726450;30;21056;-52
2023/04/01 13:07:19;;;;;;;10.70;10.20;;;14.50;99.90;;;;;;4720695;30;21589;-49
2023/04/01 13:09:57;;;;;;;10.80;10.20;;;14.50;99.90;;;;;;4724172;30;20451;-53
2023/04/01 13:12:35;;;;;;;11.80;11.30;;;14.50;99.90;;;;;;4725739;30;20789;-48
2023/04/01 13:15:27;;;;;;;11.00;10.50;;;14.70;99.90;;;;;;4729750;30;20479;-51
2023/04/01 13:17:58;;;;;;;11.60;11.10;;;14.90;99.90;;;;;;4726570;30;22350;-51
2023/04/01 13:20:42;;;;;;;12.33;11.77;;;15.10;99.90;;;;;;4736482;30;20452;-51
2023/04/01 13:23:20;;;;;;;11.53;11.03;;;15.40;99.90;;;;;;4730287;30;20442;-50